Time;durP1;ratioP1;P1;durP2;ratioP2;P2;SDS_P1;SDS_P2;PMS_P1;PMS_P2;Temp;Humidity;BMP_temperature;BMP_pressure;BME280_temperature;BME280_humidity;BME280_pressure;Samples;Min_cycle;Max_cycle;Signal;HPM_P1;HPM_P2
2023/12/22 00:01:01;;;;;;;83.72;34.13;;;;;;;9.89;67.08;98393.02;1721696;83;21254;-82
2023/12/22 00:04:08;;;;;;;86.53;37.40;;;;;;;9.73;67.63;98392.14;1701660;84;21887;-82
2023/12/22 00:07:12;;;;;;;70.08;36.58;;;;;;;9.77;67.45;98397.48;1685659;85;21864;-83
2023/12/22 00:10:20;;;;;;;79.35;36.03;;;;;;;9.79;67.31;98393.19;1682136;84;21896;-82
2023/12/22 00:13:25;;;;;;;78.67;36.45;;;;;;;9.76;67.34;98391.72;1721674;83;21279;-82
2023/12/22 00:16:33;;;;;;;67.80;35.17;;;;;;;9.80;66.97;98396.22;1688898;85;21268;-82
2023/12/22 00:19:40;;;;;;;90.03;39.27;;;;;;;9.66;67.50;98399.54;1719867;83;21944;-83
2023/12/22 00:22:46;;;;;;;77.80;37.63;;;;;;;9.59;68.01;98394.63;1683663;85;21858;-83
2023/12/22 00:25:53;;;;;;;76.67;36.08;;;;;;;9.52;68.17;98386.47;1695336;83;21866;-82
2023/12/22 00:28:58;;;;;;;71.97;34.53;;;;;;;9.61;68.26;98383.81;1698500;84;21319;-83
2023/12/22 00:32:03;;;;;;;71.40;35.25;;;;;;;9.68;68.13;98385.97;1698741;83;21184;-82
2023/12/22 00:35:10;;;;;;;69.87;33.28;;;;;;;9.66;68.43;98376.34;1699087;84;21157;-82
2023/12/22 00:38:16;;;;;;;68.50;31.25;;;;;;;9.67;68.47;98368.45;1743313;82;21267;-82
2023/12/22 00:41:21;;;;;;;64.75;32.00;;;;;;;9.68;68.34;98361.93;1715072;83;21327;-82
2023/12/22 00:44:21;;;;;;;75.85;35.78;;;;;;;9.71;68.27;98364.23;1718799;83;21271;-82
2023/12/22 00:47:27;;;;;;;66.75;34.25;;;;;;;9.78;67.85;98355.47;1708906;83;21292;-82
2023/12/22 00:50:33;;;;;;;74.10;32.28;;;;;;;9.67;68.19;98352.91;1698457;84;21304;-82
2023/12/22 00:53:38;;;;;;;63.20;32.17;;;;;;;9.81;67.91;98344.12;1743258;82;21845;-82
2023/12/22 00:56:43;;;;;;;67.75;30.57;;;;;;;10.10;67.64;98344.03;1715064;83;21217;-82
2023/12/22 00:59:49;;;;;;;72.47;30.57;;;;;;;10.08;67.63;98343.42;1718392;83;21259;-83
2023/12/22 01:02:55;;;;;;;65.22;29.98;;;;;;;10.09;67.77;98334.70;1706397;83;21292;-82
2023/12/22 01:06:01;;;;;;;66.15;29.57;;;;;;;10.12;67.50;98328.27;1686862;83;21247;-82
2023/12/22 01:09:01;;;;;;;68.85;30.15;;;;;;;10.20;67.23;98318.94;1698903;84;21275;-82
2023/12/22 01:12:07;;;;;;;57.62;25.52;;;;;;;10.38;66.55;98314.11;1720441;83;21299;-82
2023/12/22 01:15:14;;;;;;;57.70;23.00;;;;;;;10.28;66.46;98299.58;1727771;83;21319;-82
2023/12/22 01:18:18;;;;;;;46.33;25.15;;;;;;;10.31;66.25;98305.15;1727824;83;21315;-82
2023/12/22 01:21:24;;;;;;;53.95;24.82;;;;;;;10.23;66.03;98315.25;1716078;83;21331;-83
2023/12/22 01:24:30;;;;;;;43.98;24.87;;;;;;;10.19;66.15;98308.55;1698745;84;21268;-83
2023/12/22 01:27:36;;;;;;;46.37;25.50;;;;;;;10.10;66.43;98303.05;1708769;84;21867;-82
2023/12/22 01:30:42;;;;;;;50.80;26.12;;;;;;;10.06;66.44;98303.72;1695997;83;21304;-82
2023/12/22 01:33:48;;;;;;;55.83;26.37;;;;;;;9.95;66.93;98309.37;1713490;83;21795;-82
2023/12/22 01:36:54;;;;;;;60.17;27.32;;;;;;;10.08;66.71;98309.81;1730502;83;21188;-82
2023/12/22 01:39:54;;;;;;;46.83;22.55;;;;;;;10.30;66.36;98305.65;1718671;83;21267;-82
2023/12/22 01:43:00;;;;;;;58.92;24.55;;;;;;;10.24;66.62;98314.75;1689601;83;21275;-82
2023/12/22 01:46:08;;;;;;;43.15;24.95;;;;;;;10.07;66.99;98309.48;1698735;84;21720;-82
2023/12/22 01:49:14;;;;;;;43.08;22.50;;;;;;;10.22;66.78;98316.84;1679556;84;21273;-82
2023/12/22 01:52:20;;;;;;;47.30;27.55;;;;;;;9.99;67.41;98313.34;1702165;84;21288;-82
2023/12/22 01:55:27;;;;;;;50.85;24.50;;;;;;;10.16;67.13;98309.52;1685112;85;21291;-82
2023/12/22 01:58:32;;;;;;;61.35;27.40;;;;;;;10.17;67.31;98299.75;1712059;84;21272;-82
2023/12/22 02:01:41;;;;;;;60.97;27.67;;;;;;;10.42;66.56;98303.04;1686217;85;21308;-82
2023/12/22 02:04:48;;;;;;;43.23;25.77;;;;;;;10.39;66.34;98302.94;1698770;84;21192;-82
2023/12/22 02:07:54;;;;;;;47.30;24.63;;;;;;;10.51;65.73;98291.30;1704957;84;21277;-82
2023/12/22 02:11:01;;;;;;;44.73;24.85;;;;;;;10.39;65.70;98282.45;1715122;83;21323;-83
2023/12/22 02:14:06;;;;;;;51.53;24.43;;;;;;;10.49;65.66;98282.80;1718537;83;21303;-82
2023/12/22 02:17:32;;;;;;;46.30;21.80;;;;;;;10.61;64.81;98275.20;1717015;83;21263;-82
2023/12/22 02:20:38;;;;;;;37.20;23.50;;;;;;;10.29;65.55;98275.29;1687842;82;21827;-82
2023/12/22 02:23:44;;;;;;;37.03;22.60;;;;;;;10.12;66.24;98272.27;1697811;83;21315;-82
2023/12/22 02:26:52;;;;;;;41.73;21.95;;;;;;;9.99;66.66;98258.72;1720594;83;21263;-82
2023/12/22 02:30:04;;;;;;;52.58;30.23;;;;;;;10.28;66.40;98266.80;1717144;83;21299;-82
2023/12/22 02:33:10;;;;;;;70.08;29.35;;;;;;;10.37;65.86;98254.52;1718712;83;21267;-82
2023/12/22 02:36:16;;;;;;;43.30;22.87;;;;;;;10.66;64.68;98242.55;1713860;83;21277;-82
2023/12/22 02:39:23;;;;;;;44.13;23.22;;;;;;;10.80;64.30;98244.61;1688192;85;21269;-83
2023/12/22 02:42:30;;;;;;;40.20;23.77;;;;;;;10.63;64.94;98238.39;1716170;82;21340;-83
2023/12/22 02:45:36;;;;;;;36.40;19.82;;;;;;;10.52;65.16;98231.45;1713715;83;21248;-82
2023/12/22 02:48:42;;;;;;;39.40;22.15;;;;;;;10.72;64.17;98226.59;1713721;83;21844;-82
2023/12/22 02:51:47;;;;;;;40.40;21.57;;;;;;;10.53;64.28;98223.55;1693637;83;21311;-82
2023/12/22 02:54:53;;;;;;;43.08;23.75;;;;;;;10.43;64.52;98216.71;1718729;83;21259;-82
2023/12/22 02:58:00;;;;;;;34.90;20.72;;;;;;;10.48;64.28;98210.03;1716188;83;21304;-82
2023/12/22 03:01:06;;;;;;;36.13;20.05;;;;;;;9.51;67.18;98214.77;1718590;83;21263;-82
2023/12/22 03:04:12;;;;;;;38.38;22.30;;;;;;;9.25;68.56;98199.39;1716969;83;21283;-82
2023/12/22 03:07:19;;;;;;;39.48;22.25;;;;;;;10.07;66.36;98198.36;1720038;83;21787;-82
2023/12/22 03:10:23;;;;;;;49.30;24.47;;;;;;;10.03;65.87;98189.47;1698822;84;21192;-82
2023/12/22 03:13:29;;;;;;;56.20;27.95;;;;;;;10.23;65.76;98182.73;1712883;84;21295;-82
2023/12/22 03:16:35;;;;;;;59.13;30.90;;;;;;;10.33;65.79;98165.84;1686700;83;21307;-82
2023/12/22 03:19:41;;;;;;;62.33;32.63;;;;;;;10.41;65.84;98169.66;1698708;84;21315;-82
2023/12/22 03:22:48;;;;;;;58.83;29.67;;;;;;;10.56;65.84;98166.54;1714699;83;21307;-83
2023/12/22 03:25:55;;;;;;;58.75;28.77;;;;;;;10.54;65.94;98164.58;1729640;83;21298;-82
2023/12/22 03:29:01;;;;;;;47.85;25.25;;;;;;;10.63;65.44;98163.72;1729528;83;21312;-82
2023/12/22 03:32:06;;;;;;;58.70;26.48;;;;;;;10.60;65.12;98171.03;1715706;83;21780;-82
2023/12/22 03:35:12;;;;;;;42.05;24.65;;;;;;;10.34;65.32;98170.25;1715780;83;21267;-82
2023/12/22 03:38:18;;;;;;;53.08;25.35;;;;;;;10.31;65.38;98167.16;1705879;83;21306;-82
2023/12/22 03:41:23;;;;;;;48.40;26.90;;;;;;;10.16;66.13;98167.45;1672689;86;21287;-82
2023/12/22 03:44:30;;;;;;;45.58;24.95;;;;;;;10.06;66.43;98160.31;1719468;83;21866;-82
2023/12/22 03:47:34;;;;;;;41.48;24.75;;;;;;;9.99;66.54;98157.66;1672108;86;21275;-82
2023/12/22 03:50:40;;;;;;;44.33;24.00;;;;;;;10.19;66.09;98139.70;1672122;86;21318;-82
2023/12/22 03:53:46;;;;;;;47.60;25.65;;;;;;;10.31;65.57;98132.46;1719543;83;21585;-82
2023/12/22 03:56:53;;;;;;;44.03;23.77;;;;;;;10.41;65.18;98125.93;1701222;84;21295;-82
2023/12/22 03:59:58;;;;;;;37.73;20.50;;;;;;;10.47;64.82;98125.01;1726943;83;21326;-82
2023/12/22 04:03:04;;;;;;;39.05;21.70;;;;;;;10.52;64.44;98120.75;1729640;83;21305;-82
2023/12/22 04:06:13;;;;;;;37.88;23.83;;;;;;;10.71;64.13;98124.59;1729690;83;21254;-83
2023/12/22 04:09:18;;;;;;;42.98;24.35;;;;;;;9.90;66.36;98127.07;1715704;83;21830;-82
2023/12/22 04:12:24;;;;;;;35.65;23.15;;;;;;;9.94;67.12;98124.20;1731572;83;21274;-82
2023/12/22 04:15:29;;;;;;;37.67;21.55;;;;;;;10.16;66.78;98120.52;1729621;83;21254;-82
2023/12/22 04:18:35;;;;;;;35.30;22.50;;;;;;;10.09;66.99;98118.37;1729642;83;21809;-82
2023/12/22 04:21:41;;;;;;;36.50;21.25;;;;;;;10.12;66.49;98118.47;1715817;83;21872;-82
2023/12/22 04:24:46;;;;;;;34.75;20.95;;;;;;;9.84;66.86;98117.59;1704286;83;21324;-82
2023/12/22 04:27:53;;;;;;;39.38;22.02;;;;;;;9.66;67.21;98111.02;1703278;84;21812;-82
2023/12/22 04:30:58;;;;;;;34.73;20.85;;;;;;;9.53;67.64;98100.75;1693269;83;21274;-82
2023/12/22 04:34:04;;;;;;;34.25;21.82;;;;;;;9.72;67.10;98095.10;1701788;84;21818;-83
2023/12/22 04:37:11;;;;;;;34.65;20.95;;;;;;;9.70;67.11;98097.23;1721644;83;21263;-82
2023/12/22 04:40:17;;;;;;;33.63;20.75;;;;;;;9.74;66.79;98096.27;1688822;85;21315;-82
2023/12/22 04:43:23;;;;;;;30.62;19.50;;;;;;;9.62;66.87;98093.95;1721557;83;21302;-82
2023/12/22 04:46:29;;;;;;;32.40;21.10;;;;;;;9.68;66.53;98093.88;1703278;84;21281;-82
2023/12/22 04:49:34;;;;;;;38.05;22.48;;;;;;;9.66;66.46;98095.17;1703302;84;21272;-82
2023/12/22 04:52:40;;;;;;;33.67;21.23;;;;;;;9.70;66.02;98093.14;1703323;84;21268;-82
2023/12/22 04:55:46;;;;;;;34.48;20.97;;;;;;;9.79;65.50;98086.87;1703269;84;21273;-82
2023/12/22 04:58:52;;;;;;;30.23;20.27;;;;;;;9.50;66.29;98090.27;1703154;84;21276;-82
2023/12/22 05:01:58;;;;;;;36.03;21.55;;;;;;;9.68;65.95;98086.22;1703370;84;21272;-82
2023/12/22 05:05:03;;;;;;;40.05;25.23;;;;;;;9.98;64.58;98080.36;1703263;84;21292;-83
2023/12/22 05:08:10;;;;;;;39.48;24.23;;;;;;;10.04;64.27;98076.41;1703341;84;21276;-83
2023/12/22 05:11:15;;;;;;;33.08;22.62;;;;;;;9.91;64.33;98079.58;1703284;84;21273;-82
2023/12/22 05:14:20;;;;;;;31.57;21.48;;;;;;;10.11;64.11;98073.89;1703189;84;21879;-82
2023/12/22 05:17:26;;;;;;;34.80;22.50;;;;;;;9.89;64.71;98069.43;1703290;84;21872;-82
2023/12/22 05:20:33;;;;;;;33.05;20.65;;;;;;;9.99;64.08;98070.27;1698987;84;21823;-82
2023/12/22 05:23:41;;;;;;;33.30;19.95;;;;;;;9.91;64.09;98067.83;1711317;83;21295;-82
2023/12/22 05:26:47;;;;;;;32.60;21.97;;;;;;;10.00;63.93;98077.39;1707818;82;21925;-82
2023/12/22 05:29:53;;;;;;;33.45;21.20;;;;;;;10.22;62.88;98081.34;1706222;84;21338;-82
2023/12/22 05:32:59;;;;;;;35.23;19.12;;;;;;;10.32;62.21;98076.75;1696288;82;21884;-83
2023/12/22 05:36:05;;;;;;;27.73;18.57;;;;;;;10.28;61.78;98077.43;1705869;83;21319;-82
2023/12/22 05:39:11;;;;;;;33.18;22.05;;;;;;;10.18;62.02;98076.56;1705091;84;21269;-82
2023/12/22 05:42:16;;;;;;;27.75;19.85;;;;;;;9.80;63.00;98079.51;1735353;82;21260;-82
2023/12/22 05:45:24;;;;;;;28.57;20.50;;;;;;;9.89;63.02;98089.08;1730141;83;21308;-83
2023/12/22 05:48:29;;;;;;;28.47;18.77;;;;;;;10.21;62.30;98090.61;1706710;83;21308;-82
2023/12/22 05:51:36;;;;;;;41.58;24.35;;;;;;;10.25;62.17;98108.76;1699543;83;21288;-82
2023/12/22 05:54:50;;;;;;;33.65;22.00;;;;;;;10.17;62.54;98106.32;1696736;83;21307;-82
2023/12/22 05:57:56;;;;;;;37.25;22.50;;;;;;;10.28;61.88;98108.31;1716372;83;21850;-82
2023/12/22 06:01:02;;;;;;;38.40;23.07;;;;;;;10.30;61.86;98115.73;1706424;83;21275;-82
2023/12/22 06:04:08;;;;;;;35.98;22.62;;;;;;;10.46;61.42;98101.48;1704274;83;21252;-82
2023/12/22 06:07:13;;;;;;;41.73;22.50;;;;;;;10.48;61.34;98102.60;1719002;82;21236;-82
2023/12/22 06:10:19;;;;;;;32.67;21.27;;;;;;;10.43;61.15;98106.56;1692802;84;22215;-82
2023/12/22 06:13:25;;;;;;;38.33;23.87;;;;;;;10.39;60.89;98099.34;1721711;83;22265;-82
2023/12/22 06:16:31;;;;;;;36.20;22.80;;;;;;;10.60;60.39;98104.88;1699888;84;21359;-83
2023/12/22 06:19:36;;;;;;;41.05;24.82;;;;;;;10.40;60.91;98105.14;1730831;83;21807;-82
2023/12/22 06:22:42;;;;;;;57.60;30.45;;;;;;;10.05;62.28;98104.03;1718204;83;21294;-83
2023/12/22 06:25:47;;;;;;;60.20;27.98;;;;;;;10.16;62.00;98101.89;1696409;83;21317;-82
2023/12/22 06:28:54;;;;;;;40.90;23.90;;;;;;;10.26;61.62;98106.36;1703375;83;21310;-83
2023/12/22 06:32:00;;;;;;;40.38;23.73;;;;;;;10.31;61.84;98111.14;1698104;83;21310;-83
2023/12/22 06:35:05;;;;;;;37.03;22.95;;;;;;;10.17;62.29;98110.42;1669725;86;21826;-83
2023/12/22 06:38:12;;;;;;;42.13;26.02;;;;;;;10.36;61.84;98096.26;1661146;86;21272;-82
2023/12/22 06:41:36;;;;;;;48.45;28.25;;;;;;;10.20;62.33;98097.12;1666319;86;21342;-83
2023/12/22 06:44:41;;;;;;;42.98;26.23;;;;;;;10.24;62.17;98092.07;1675564;85;21883;-83
2023/12/22 06:47:47;;;;;;;38.98;25.23;;;;;;;10.27;62.15;98097.09;1677385;84;21878;-83
2023/12/22 06:50:54;;;;;;;36.63;22.77;;;;;;;10.30;62.16;98095.25;1698991;83;21334;-83
2023/12/22 06:54:00;;;;;;;40.85;23.95;;;;;;;10.49;61.55;98092.83;1721181;83;21294;-83
2023/12/22 06:57:08;;;;;;;34.27;21.20;;;;;;;10.47;61.45;98094.94;1680733;84;21296;-83
2023/12/22 07:00:17;;;;;;;35.70;22.55;;;;;;;10.55;61.27;98103.91;1711155;83;22158;-82
2023/12/22 07:03:23;;;;;;;43.33;27.27;;;;;;;10.50;61.35;98099.12;1710298;83;21302;-82
2023/12/22 07:06:27;;;;;;;42.62;24.00;;;;;;;10.55;61.32;98094.34;1651488;86;21829;-83
2023/12/22 07:09:37;;;;;;;39.40;24.35;;;;;;;10.72;60.96;98099.45;1656821;86;21291;-82
2023/12/22 07:12:42;;;;;;;38.00;21.20;;;;;;;10.65;60.71;98092.72;1706947;83;21326;-82
2023/12/22 07:15:49;;;;;;;36.48;21.73;;;;;;;10.78;60.14;98084.05;1710912;83;21261;-82
2023/12/22 07:18:55;;;;;;;35.55;20.88;;;;;;;10.47;60.36;98090.01;1712565;83;21251;-83
2023/12/22 07:22:03;;;;;;;30.37;20.43;;;;;;;10.38;60.56;98085.92;1718801;83;21810;-82
2023/12/22 07:25:15;;;;;;;26.70;18.00;;;;;;;10.52;60.04;98082.48;1708305;83;21342;-83
2023/12/22 07:28:21;;;;;;;26.82;17.73;;;;;;;10.57;59.87;98081.27;1708206;83;21890;-83
2023/12/22 07:31:27;;;;;;;28.98;17.77;;;;;;;10.64;59.58;98080.13;1703678;83;21292;-83
2023/12/22 07:34:34;;;;;;;22.80;16.35;;;;;;;10.42;60.05;98078.40;1710550;83;21275;-82
2023/12/22 07:37:42;;;;;;;23.60;17.05;;;;;;;10.34;59.68;98064.20;1706074;83;21295;-82
2023/12/22 07:40:49;;;;;;;26.80;17.30;;;;;;;10.16;59.73;98067.75;1697548;83;21314;-82
2023/12/22 07:43:55;;;;;;;22.13;15.10;;;;;;;10.29;58.94;98062.70;1713963;83;21283;-83
2023/12/22 07:47:07;;;;;;;25.95;16.15;;;;;;;9.97;58.91;98052.75;1706464;83;21298;-83
2023/12/22 07:50:14;;;;;;;23.35;16.37;;;;;;;10.00;58.77;98048.72;1705049;83;21268;-83
2023/12/22 07:53:21;;;;;;;27.02;16.93;;;;;;;9.94;58.57;98042.80;1706931;83;21290;-82
2023/12/22 07:56:27;;;;;;;23.57;17.00;;;;;;;9.67;59.76;98038.16;1702655;83;21295;-82
2023/12/22 07:59:33;;;;;;;25.25;17.10;;;;;;;9.60;60.41;98036.03;1708680;83;21286;-82
2023/12/22 08:02:39;;;;;;;26.77;18.30;;;;;;;9.71;60.48;98040.74;1715174;83;21326;-82
2023/12/22 08:05:46;;;;;;;29.37;19.80;;;;;;;9.83;60.45;98047.64;1697181;83;21924;-82
2023/12/22 08:08:55;;;;;;;23.95;16.55;;;;;;;9.94;60.47;98040.91;1727427;81;21287;-83
2023/12/22 08:12:01;;;;;;;21.37;15.98;;;;;;;10.24;59.81;98042.36;1717907;81;21271;-82
2023/12/22 08:15:07;;;;;;;24.77;18.25;;;;;;;10.14;60.01;98037.94;1693581;84;21295;-82
2023/12/22 08:18:15;;;;;;;26.50;17.75;;;;;;;10.30;59.64;98036.50;1699017;83;21326;-82
2023/12/22 08:21:21;;;;;;;26.10;18.62;;;;;;;9.91;59.70;98035.89;1698270;83;21890;-82
2023/12/22 08:24:31;;;;;;;23.98;15.28;;;;;;;10.34;59.71;98032.25;1709751;83;21910;-83
2023/12/22 08:27:40;;;;;;;25.23;17.20;;;;;;;10.37;59.53;98033.17;1712248;81;21278;-83
2023/12/22 08:30:47;;;;;;;29.15;17.85;;;;;;;10.69;58.02;98017.91;1699620;83;22462;-82
2023/12/22 08:33:53;;;;;;;28.42;16.37;;;;;;;10.92;56.56;98009.78;1690780;84;21406;-82
2023/12/22 08:37:00;;;;;;;28.42;17.65;;;;;;;10.67;56.68;97999.52;1670807;85;21302;-83
2023/12/22 08:40:05;;;;;;;25.68;17.05;;;;;;;10.83;55.80;97994.77;1700569;83;21814;-82
2023/12/22 08:43:12;;;;;;;22.45;16.15;;;;;;;10.83;55.76;97992.03;1694588;83;22290;-82
2023/12/22 08:46:18;;;;;;;31.77;17.30;;;;;;;10.59;56.18;97987.58;1686726;83;21298;-82
2023/12/22 08:49:25;;;;;;;36.20;18.40;;;;;;;10.31;57.25;97984.91;1695250;84;21873;-82
2023/12/22 08:52:31;;;;;;;27.65;19.00;;;;;;;10.64;57.03;97993.17;1696803;83;21287;-82
2023/12/22 08:55:36;;;;;;;27.87;18.15;;;;;;;10.81;57.22;97992.78;1692450;84;22268;-82
2023/12/22 08:58:44;;;;;;;26.73;18.27;;;;;;;11.05;56.46;97981.35;1689225;83;21323;-82
2023/12/22 09:01:50;;;;;;;26.82;16.87;;;;;;;10.83;56.07;97972.89;1691343;82;21314;-82
2023/12/22 09:04:57;;;;;;;27.02;17.77;;;;;;;10.74;56.43;97964.73;1704324;83;21994;-82
2023/12/22 09:08:04;;;;;;;34.20;21.48;;;;;;;10.34;57.35;97965.30;1669239;84;21921;-83
2023/12/22 09:11:10;;;;;;;24.27;16.55;;;;;;;10.58;56.47;97956.64;1665648;85;21365;-82
2023/12/22 09:14:17;;;;;;;25.40;17.25;;;;;;;10.67;56.30;97947.05;1667403;84;21904;-83
2023/12/22 09:17:23;;;;;;;21.80;15.60;;;;;;;10.97;55.02;97947.00;1694331;84;21601;-82
2023/12/22 09:20:30;;;;;;;27.40;17.05;;;;;;;10.64;55.71;97952.17;1653333;86;21263;-82
2023/12/22 09:23:35;;;;;;;27.07;16.70;;;;;;;10.47;56.68;97950.09;1690647;83;21770;-82
2023/12/22 09:26:41;;;;;;;21.93;15.70;;;;;;;11.16;55.56;97942.25;1674475;84;21325;-83
2023/12/22 09:29:47;;;;;;;29.12;16.82;;;;;;;11.09;55.55;97936.59;1686462;83;21298;-83
2023/12/22 09:32:55;;;;;;;25.55;16.05;;;;;;;11.20;55.35;97935.23;1698295;82;21326;-83
2023/12/22 09:36:01;;;;;;;22.75;16.15;;;;;;;11.21;55.10;97931.96;1682432;83;21342;-82
2023/12/22 09:39:07;;;;;;;22.70;15.88;;;;;;;10.95;55.39;97938.17;1682120;83;21368;-82
2023/12/22 09:42:15;;;;;;;24.40;16.02;;;;;;;10.99;55.27;97929.80;1710116;83;22274;-82
2023/12/22 09:45:15;;;;;;;21.50;15.23;;;;;;;10.88;55.85;97920.23;1718631;83;21306;-82
2023/12/22 09:48:27;;;;;;;24.10;15.03;;;;;;;10.63;56.48;97931.34;1712847;83;21319;-82
2023/12/22 09:51:29;;;;;;;26.30;16.95;;;;;;;10.54;56.49;97920.44;1716654;83;21322;-82
2023/12/22 09:54:35;;;;;;;27.80;15.93;;;;;;;10.78;55.99;97919.45;1714828;83;21895;-82
2023/12/22 09:57:41;;;;;;;30.35;19.95;;;;;;;11.02;55.38;97916.20;1689199;84;21303;-82
2023/12/22 10:00:47;;;;;;;23.65;16.90;;;;;;;11.09;55.03;97917.44;1704403;83;21313;-82
2023/12/22 10:03:52;;;;;;;28.40;17.10;;;;;;;11.36;54.19;97911.77;1694948;84;22480;-82
2023/12/22 10:07:01;;;;;;;29.30;15.58;;;;;;;11.00;55.09;97907.38;1721646;83;21312;-83
2023/12/22 10:10:09;;;;;;;32.20;19.52;;;;;;;11.15;54.27;97901.42;1700878;83;21897;-82
2023/12/22 10:13:15;;;;;;;27.62;17.40;;;;;;;11.22;54.03;97891.20;1707829;83;21319;-82
2023/12/22 10:16:22;;;;;;;25.82;15.68;;;;;;;11.22;53.58;97883.00;1717862;83;21893;-82
2023/12/22 10:19:30;;;;;;;22.95;15.35;;;;;;;11.22;53.30;97877.53;1692514;84;21344;-82
2023/12/22 10:22:37;;;;;;;23.38;15.15;;;;;;;11.04;53.48;97873.55;1709367;83;21350;-83
2023/12/22 10:25:43;;;;;;;24.40;16.20;;;;;;;10.90;53.58;97867.48;1712434;83;21302;-82
2023/12/22 10:28:54;;;;;;;28.80;19.12;;;;;;;10.65;54.07;97857.61;1709721;83;21195;-83
2023/12/22 10:32:00;;;;;;;23.40;16.60;;;;;;;10.93;54.07;97855.54;1709534;82;22640;-83
2023/12/22 10:35:06;;;;;;;28.65;17.60;;;;;;;10.77;54.09;97854.04;1714014;82;22316;-82
2023/12/22 10:38:12;;;;;;;23.00;17.07;;;;;;;10.90;53.96;97845.60;1719052;82;21319;-82
2023/12/22 10:41:26;;;;;;;31.97;19.87;;;;;;;10.88;53.89;97842.29;1718807;82;21850;-83
2023/12/22 10:44:38;;;;;;;25.92;18.27;;;;;;;10.52;54.77;97844.70;1719449;82;21288;-82
2023/12/22 10:47:45;;;;;;;26.82;17.87;;;;;;;10.69;54.38;97842.41;1718748;82;21814;-83
2023/12/22 10:50:51;;;;;;;26.82;17.73;;;;;;;10.65;54.52;97840.38;1694928;84;21358;-83
2023/12/22 10:53:58;;;;;;;25.62;16.73;;;;;;;11.12;53.71;97844.47;1665548;84;21303;-82
2023/12/22 10:57:07;;;;;;;22.35;15.75;;;;;;;11.00;53.75;97835.72;1708213;83;21324;-83
2023/12/22 11:00:16;;;;;;;25.17;17.25;;;;;;;10.89;53.84;97846.14;1699654;83;21350;-83
2023/12/22 11:03:26;;;;;;;26.45;17.12;;;;;;;10.77;54.24;97843.93;1699231;83;21295;-83
2023/12/22 11:06:33;;;;;;;22.25;15.80;;;;;;;11.09;53.39;97845.77;1696645;83;21345;-83
2023/12/22 11:09:43;;;;;;;22.37;15.65;;;;;;;11.10;53.33;97847.42;1701564;83;21228;-83
2023/12/22 11:12:51;;;;;;;25.32;17.48;;;;;;;11.20;53.30;97844.94;1716374;82;22479;-83
2023/12/22 11:15:56;;;;;;;31.20;21.25;;;;;;;11.20;53.40;97853.69;1704545;83;21291;-83
2023/12/22 11:19:02;;;;;;;23.77;17.02;;;;;;;11.24;53.26;97849.38;1688511;82;21944;-83
2023/12/22 11:22:08;;;;;;;24.45;17.48;;;;;;;11.25;53.32;97841.48;1702667;83;21885;-83
2023/12/22 11:25:15;;;;;;;24.25;16.42;;;;;;;11.39;52.87;97837.95;1703508;83;21303;-83
2023/12/22 11:28:22;;;;;;;21.15;15.48;;;;;;;11.56;52.50;97825.69;1701383;83;21308;-83
2023/12/22 11:31:27;;;;;;;21.35;15.20;;;;;;;11.41;53.02;97832.52;1702381;83;21286;-83
2023/12/22 11:34:34;;;;;;;26.00;18.92;;;;;;;11.24;53.37;97828.85;1702966;83;22171;-83
2023/12/22 11:37:39;;;;;;;26.23;18.37;;;;;;;11.10;53.71;97813.23;1701807;83;21380;-82
2023/12/22 11:40:47;;;;;;;27.77;18.32;;;;;;;11.39;53.12;97809.21;1709276;83;21299;-83
2023/12/22 11:43:52;;;;;;;24.10;17.52;;;;;;;11.67;52.50;97794.17;1707546;83;22096;-83
2023/12/22 11:46:59;;;;;;;26.57;18.02;;;;;;;11.81;52.28;97786.50;1704065;83;21310;-83
2023/12/22 11:50:06;;;;;;;30.55;20.05;;;;;;;11.47;52.97;97778.16;1706067;83;21326;-83
2023/12/22 11:53:32;;;;;;;28.60;17.00;;;;;;;11.45;53.21;97772.11;1704622;83;21337;-83
2023/12/22 11:56:38;;;;;;;28.75;18.98;;;;;;;11.30;53.91;97762.77;1708283;83;21322;-83
2023/12/22 11:59:43;;;;;;;24.40;17.70;;;;;;;11.20;54.14;97757.92;1710055;83;21603;-83
2023/12/22 12:02:42;;;;;;;28.95;18.05;;;;;;;11.42;53.97;97747.13;1703968;83;21346;-83
2023/12/22 12:05:41;;;;;;;24.98;18.00;;;;;;;11.81;52.81;97744.05;1709144;83;21275;-83
2023/12/22 12:08:48;;;;;;;21.35;16.23;;;;;;;11.63;52.93;97742.34;1695073;83;21370;-82
2023/12/22 12:12:10;;;;;;;28.20;20.05;;;;;;;11.38;53.51;97748.14;1700850;83;21653;-83
2023/12/22 12:15:25;;;;;;;27.07;18.37;;;;;;;11.55;53.31;97747.38;1701239;82;21299;-82
2023/12/22 12:18:36;;;;;;;28.85;18.77;;;;;;;11.96;52.41;97736.13;1706127;83;21290;-83
2023/12/22 12:21:48;;;;;;;27.42;18.20;;;;;;;11.86;52.13;97735.13;1727779;82;21352;-83
2023/12/22 12:24:53;;;;;;;23.75;16.17;;;;;;;11.63;52.72;97734.67;1728179;82;21924;-82
2023/12/22 12:28:14;;;;;;;23.92;15.88;;;;;;;11.45;53.15;97732.42;1726755;82;21176;-83
2023/12/22 12:31:20;;;;;;;16.50;11.63;;;;;;;11.45;53.17;97722.02;1728354;82;21957;-83
2023/12/22 12:34:29;;;;;;;28.30;16.73;;;;;;;11.40;53.36;97699.48;1701112;83;21345;-83
2023/12/22 12:37:36;;;;;;;38.85;22.20;;;;;;;11.36;53.69;97684.63;1712130;83;21349;-83
2023/12/22 12:40:43;;;;;;;22.67;16.65;;;;;;;11.15;54.23;97697.60;1691717;84;22387;-82
2023/12/22 12:43:51;;;;;;;24.80;17.25;;;;;;;11.25;54.07;97702.76;1662639;84;21220;-82
2023/12/22 12:46:57;;;;;;;24.35;17.35;;;;;;;11.60;53.52;97692.72;1714879;83;21330;-83
2023/12/22 12:50:08;;;;;;;23.05;17.67;;;;;;;11.66;53.49;97695.28;1704933;83;21363;-83
2023/12/22 12:53:15;;;;;;;27.48;17.57;;;;;;;11.68;53.67;97686.84;1657436;84;21353;-83
2023/12/22 12:56:22;;;;;;;24.05;15.78;;;;;;;11.63;53.90;97679.91;1659634;86;21216;-82
2023/12/22 12:59:27;;;;;;;22.80;16.23;;;;;;;11.39;54.84;97686.88;1661395;84;21252;-82
2023/12/22 13:02:34;;;;;;;27.45;16.77;;;;;;;11.25;55.38;97689.63;1663214;84;21945;-83
2023/12/22 13:08:19;;;;;;;31.68;21.70;;;;;;;11.39;55.33;97675.11;1842547;76;28129;-82
2023/12/22 13:11:30;;;;;;;30.90;22.00;;;;;;;11.09;56.25;97675.33;1781044;79;21290;-82
2023/12/22 13:14:37;;;;;;;31.23;20.25;;;;;;;11.24;56.02;97672.38;1789214;79;21311;-82
2023/12/22 13:17:42;;;;;;;28.85;20.35;;;;;;;11.13;56.62;97666.39;1790110;79;22016;-82
2023/12/22 13:20:49;;;;;;;28.32;19.62;;;;;;;11.24;56.92;97663.31;1743077;82;21291;-82
2023/12/22 13:23:56;;;;;;;29.80;21.05;;;;;;;11.18;57.37;97665.66;1748968;80;21431;-82
2023/12/22 13:27:08;;;;;;;34.27;20.95;;;;;;;11.33;57.33;97659.10;1730516;81;21218;-82
2023/12/22 13:30:15;;;;;;;33.58;23.15;;;;;;;11.42;57.11;97653.52;1731192;82;21344;-82
2023/12/22 13:33:20;;;;;;;31.95;22.37;;;;;;;11.06;58.55;97655.33;1715762;82;21312;-82
2023/12/22 13:36:27;;;;;;;35.30;23.30;;;;;;;11.03;58.90;97658.00;1717862;82;21342;-83
2023/12/22 13:39:35;;;;;;;38.38;25.17;;;;;;;11.15;58.83;97651.09;1713737;82;21717;-83
2023/12/22 13:42:43;;;;;;;38.78;25.20;;;;;;;11.09;59.22;97641.14;1719968;82;21887;-82
2023/12/22 13:45:48;;;;;;;37.23;25.37;;;;;;;10.89;60.16;97642.41;1712894;82;21309;-82
2023/12/22 13:48:53;;;;;;;38.35;25.30;;;;;;;10.85;60.64;97648.06;1720038;82;21302;-83
2023/12/22 13:52:06;;;;;;;40.95;25.60;;;;;;;11.60;58.79;97643.44;1720847;82;21382;-83
2023/12/22 13:55:08;;;;;;;39.58;24.55;;;;;;;11.54;58.92;97646.63;1722372;82;22639;-82
2023/12/22 13:58:17;;;;;;;37.28;26.42;;;;;;;11.63;59.03;97642.41;1731836;82;21228;-83
2023/12/22 14:01:23;;;;;;;44.33;28.20;;;;;;;11.63;58.91;97642.95;1711960;82;21976;-83
2023/12/22 14:04:30;;;;;;;46.42;31.05;;;;;;;11.45;59.60;97644.83;1724948;82;21942;-82
2023/12/22 14:07:36;;;;;;;41.73;27.52;;;;;;;11.43;59.92;97632.45;1713044;82;21339;-83
2023/12/22 14:10:43;;;;;;;49.27;29.90;;;;;;;11.68;59.53;97638.39;1710398;82;21844;-83
2023/12/22 14:13:48;;;;;;;44.65;28.70;;;;;;;11.68;59.68;97633.45;1708654;82;21291;-82
2023/12/22 14:16:55;;;;;;;47.08;29.87;;;;;;;11.61;59.84;97632.77;1709978;82;21856;-82
2023/12/22 14:20:00;;;;;;;43.92;29.90;;;;;;;11.24;61.40;97632.70;1708675;83;22271;-82
2023/12/22 14:23:06;;;;;;;50.38;31.87;;;;;;;11.72;60.50;97620.93;1708862;84;21359;-83